Hume, Illinois
Current Conditions -  °F | °C
As of 4:55 AM on Monday 20 Oct 2014 (Local Time) from KPRG Reporting Station
Overcast Overcast  
Wind Chill: 51°   Ceiling: 10000
Heat Index: 51°   Visibility: 10mi
Dew Point: 47°   Wind: 8mph
Humidity: 85%   Direction: 210°SSW
Pressure: 29.95"   Gusts: NA
Location:  39.8°N, 87.87°W
Report Text: KPRG 200955Z AUTO 21007KT 10SM OVC100 11/08 A2995 RMK AO2 T01060081
Loading
Personal Weather Stations






























Interactive Weather Map
Tropical Storm Tracking
New forecast layout! Learn more

10-Day Weather Forecast

Advertisements
Track Severe Weather on mobile